Time;durP1;ratioP1;P1;durP2;ratioP2;P2;SDS_P1;SDS_P2;PMS_P1;PMS_P2;Temp;Humidity;BMP_temperature;BMP_pressure;BME280_temperature;BME280_humidity;BME280_pressure;Samples;Min_cycle;Max_cycle;Signal;HPM_P1;HPM_P2
2022/01/10 00:00:28;;;;;;;34.10;21.92;;;;;;;4.30;100.00;91542.59;5053316;28;20041;-85
2022/01/10 00:02:58;;;;;;;39.90;23.58;;;;;;;4.20;100.00;91531.16;5053027;28;20053;-85
2022/01/10 00:05:26;;;;;;;77.53;36.42;;;;;;;4.09;100.00;91536.94;5052927;28;20060;-86
2022/01/10 00:07:54;;;;;;;43.47;25.35;;;;;;;4.15;100.00;91543.72;5053053;28;20495;-85
2022/01/10 00:10:21;;;;;;;44.15;25.83;;;;;;;4.22;100.00;91541.13;5052813;28;20045;-85
2022/01/10 00:12:50;;;;;;;44.00;27.60;;;;;;;4.31;100.00;91544.94;5052874;28;20049;-85
2022/01/10 00:15:17;;;;;;;48.80;27.58;;;;;;;4.41;100.00;91546.97;5052325;28;20049;-85
2022/01/10 00:17:44;;;;;;;47.92;27.92;;;;;;;4.43;100.00;91528.97;5052564;28;20057;-85
2022/01/10 00:20:13;;;;;;;42.95;26.17;;;;;;;4.51;100.00;91542.16;5052856;28;20057;-85
2022/01/10 00:22:45;;;;;;;48.00;27.23;;;;;;;4.50;100.00;91534.75;5052537;28;20384;-85
2022/01/10 00:25:15;;;;;;;43.88;25.90;;;;;;;4.59;100.00;91543.66;5052546;28;20136;-85
2022/01/10 00:27:42;;;;;;;46.35;26.42;;;;;;;4.54;100.00;91530.78;5052611;28;20059;-86
2022/01/10 00:30:10;;;;;;;40.55;24.27;;;;;;;4.64;100.00;91537.91;5052338;28;20099;-86
2022/01/10 00:32:37;;;;;;;46.03;25.48;;;;;;;4.62;100.00;91534.78;5052345;28;20559;-85
2022/01/10 00:35:05;;;;;;;47.90;26.25;;;;;;;4.53;100.00;91530.00;5052462;28;20103;-85
2022/01/10 00:37:33;;;;;;;45.58;26.50;;;;;;;4.21;100.00;91504.75;5052195;28;20053;-85
2022/01/10 00:40:00;;;;;;;49.25;28.40;;;;;;;4.16;100.00;91519.09;5052758;28;20048;-85
2022/01/10 00:42:29;;;;;;;46.78;27.50;;;;;;;4.11;100.00;91517.97;5052135;28;20534;-85
2022/01/10 00:44:57;;;;;;;46.42;25.77;;;;;;;4.16;100.00;91511.47;5052188;28;20099;-85
2022/01/10 00:47:24;;;;;;;41.80;26.00;;;;;;;4.37;100.00;91518.66;5052300;28;20610;-85
2022/01/10 00:49:51;;;;;;;41.33;24.02;;;;;;;4.40;100.00;91525.09;5052358;28;20064;-86
2022/01/10 00:52:18;;;;;;;42.17;23.13;;;;;;;4.35;100.00;91524.94;5052557;28;20567;-86
2022/01/10 00:54:45;;;;;;;39.08;23.23;;;;;;;4.39;100.00;91521.75;5052258;28;20511;-86
2022/01/10 00:57:12;;;;;;;40.45;22.48;;;;;;;4.27;100.00;91510.75;5051912;28;20060;-86
2022/01/10 00:59:40;;;;;;;37.30;21.77;;;;;;;4.44;100.00;91523.66;5052402;28;20053;-85
2022/01/10 01:02:07;;;;;;;38.63;22.48;;;;;;;4.37;100.00;91513.56;5051769;28;20045;-85
2022/01/10 01:04:34;;;;;;;41.03;22.42;;;;;;;4.26;100.00;91509.22;5051889;28;20459;-85
2022/01/10 01:07:01;;;;;;;38.08;23.30;;;;;;;4.31;100.00;91513.66;5051612;28;20053;-85
2022/01/10 01:09:30;;;;;;;37.47;22.20;;;;;;;4.38;100.00;91514.34;5051654;28;20539;-85
2022/01/10 01:12:12;;;;;;;39.92;22.40;;;;;;;4.35;100.00;91512.25;5051514;28;20051;-85
2022/01/10 01:14:53;;;;;;;42.30;24.52;;;;;;;4.46;100.00;91521.69;5051720;28;20415;-85
2022/01/10 01:17:35;;;;;;;35.80;21.58;;;;;;;4.54;100.00;91525.72;5051627;28;20565;-85
2022/01/10 01:20:20;;;;;;;39.20;21.77;;;;;;;4.48;100.00;91503.66;5051395;28;20450;-86
2022/01/10 01:25:31;;;;;;;38.78;22.35;;;;;;;4.62;100.00;91511.91;5051601;28;21418;-85
2022/01/10 01:27:59;;;;;;;37.92;23.58;;;;;;;4.63;100.00;91505.84;5050698;28;20045;-85
2022/01/10 01:30:27;;;;;;;41.90;24.23;;;;;;;4.62;100.00;91506.81;5051296;28;20487;-86
2022/01/10 01:32:54;;;;;;;39.58;23.33;;;;;;;4.54;100.00;91503.59;5051145;28;20048;-86
2022/01/10 01:35:24;;;;;;;37.28;22.27;;;;;;;4.55;100.00;91507.66;5051413;28;20097;-86
2022/01/10 01:37:51;;;;;;;37.42;22.83;;;;;;;4.50;100.00;91511.88;5051232;28;20053;-86
2022/01/10 01:40:20;;;;;;;40.85;23.83;;;;;;;4.51;100.00;91505.78;5051258;28;20049;-85
2022/01/10 01:42:47;;;;;;;37.25;22.67;;;;;;;4.52;100.00;91499.69;5051224;28;20393;-85
2022/01/10 01:45:16;;;;;;;40.03;22.45;;;;;;;4.54;100.00;91495.94;5050988;28;20060;-85
2022/01/10 01:47:45;;;;;;;39.45;22.77;;;;;;;4.62;100.00;91499.97;5051088;28;20045;-85
2022/01/10 01:50:12;;;;;;;41.90;25.13;;;;;;;4.55;100.00;91482.25;5051175;28;20415;-85
2022/01/10 01:52:39;;;;;;;42.58;25.95;;;;;;;4.67;100.00;91499.31;5051284;28;20053;-85
2022/01/10 01:55:07;;;;;;;43.30;26.65;;;;;;;4.49;100.00;91462.75;5051394;28;20415;-85
2022/01/10 01:57:35;;;;;;;44.03;26.92;;;;;;;4.72;100.00;91489.28;5050700;28;20103;-85
2022/01/10 02:00:04;;;;;;;44.17;25.58;;;;;;;4.69;100.00;91479.53;5051302;28;20454;-85
2022/01/10 02:02:30;;;;;;;42.35;24.80;;;;;;;4.71;100.00;91481.88;5050777;28;21161;-84
2022/01/10 02:04:58;;;;;;;44.85;25.95;;;;;;;4.75;100.00;91485.53;5050754;28;20488;-84
2022/01/10 02:07:25;;;;;;;44.83;26.08;;;;;;;4.67;100.00;91473.88;5050818;28;20057;-84
2022/01/10 02:09:52;;;;;;;47.38;24.58;;;;;;;4.75;100.00;91480.44;5050782;28;20087;-84
2022/01/10 02:12:19;;;;;;;45.28;27.08;;;;;;;4.63;100.00;91477.88;5050674;28;20053;-84
2022/01/10 02:14:47;;;;;;;53.45;30.63;;;;;;;4.17;100.00;91477.44;5051161;28;20079;-84
2022/01/10 02:17:16;;;;;;;58.75;36.13;;;;;;;3.70;100.00;91464.25;5050792;28;20075;-83
2022/01/10 02:19:54;;;;;;;54.53;33.03;;;;;;;3.32;100.00;91465.97;5050651;28;20051;-84
2022/01/10 02:22:21;;;;;;;50.92;31.38;;;;;;;3.14;100.00;91474.28;5050665;28;20053;-83
2022/01/10 02:24:48;;;;;;;52.50;29.73;;;;;;;3.23;100.00;91471.50;5050519;28;20099;-84
2022/01/10 02:27:15;;;;;;;57.95;32.17;;;;;;;3.37;100.00;91472.19;5050905;28;20048;-84
2022/01/10 02:29:42;;;;;;;54.53;30.23;;;;;;;3.57;100.00;91477.06;5050504;28;20484;-84
2022/01/10 02:32:08;;;;;;;49.33;28.70;;;;;;;3.72;100.00;91476.72;5050498;28;20049;-84
2022/01/10 02:34:35;;;;;;;50.45;27.05;;;;;;;3.81;100.00;91467.06;5050575;28;20416;-84
2022/01/10 02:37:04;;;;;;;44.72;25.80;;;;;;;3.94;100.00;91469.47;5048539;28;20065;-84
2022/01/10 02:39:31;;;;;;;47.30;25.77;;;;;;;4.12;100.00;91478.09;5054302;28;20099;-84
2022/01/10 02:41:57;;;;;;;41.67;24.08;;;;;;;4.22;100.00;91480.13;5054543;28;20095;-85
2022/01/10 02:44:24;;;;;;;40.80;24.42;;;;;;;4.30;100.00;91482.34;5054505;28;20087;-84
2022/01/10 02:46:51;;;;;;;42.65;23.83;;;;;;;4.37;100.00;91485.63;5054480;28;20052;-84
2022/01/10 02:49:25;;;;;;;40.53;23.10;;;;;;;4.43;100.00;91483.97;5054485;28;20078;-84
2022/01/10 02:51:52;;;;;;;38.25;22.33;;;;;;;4.45;100.00;91483.75;5054264;28;20049;-84
2022/01/10 02:54:22;;;;;;;40.83;23.40;;;;;;;4.51;100.00;91483.69;5054283;28;20126;-84
2022/01/10 02:56:51;;;;;;;40.90;23.52;;;;;;;4.54;100.00;91482.47;5054298;28;20107;-84
2022/01/10 02:59:19;;;;;;;40.67;24.45;;;;;;;4.47;100.00;91476.69;5054534;28;20041;-84
2022/01/10 03:01:46;;;;;;;51.97;27.50;;;;;;;4.60;100.00;91486.69;5054156;28;20049;-84
2022/01/10 03:04:15;;;;;;;47.53;26.30;;;;;;;4.54;100.00;91470.53;5054111;28;20454;-84
2022/01/10 03:06:42;;;;;;;48.55;27.52;;;;;;;4.64;100.00;91480.16;5054145;28;20087;-84
2022/01/10 03:09:10;;;;;;;51.45;29.35;;;;;;;4.59;100.00;91477.53;5053977;28;20049;-83
2022/01/10 03:11:39;;;;;;;49.60;26.70;;;;;;;4.68;100.00;91490.72;5053926;28;20055;-85
2022/01/10 03:14:06;;;;;;;47.28;27.60;;;;;;;4.70;100.00;91475.22;5053931;28;20056;-84
2022/01/10 03:16:34;;;;;;;51.70;28.90;;;;;;;4.70;100.00;91481.09;5053832;28;20083;-84
2022/01/10 03:19:02;;;;;;;52.70;30.42;;;;;;;4.60;100.00;91476.53;5053721;28;20103;-84
2022/01/10 03:21:29;;;;;;;52.83;30.45;;;;;;;4.47;100.00;91476.69;5053733;28;20053;-84
2022/01/10 03:23:56;;;;;;;55.83;31.35;;;;;;;4.17;100.00;91482.53;5054007;28;20041;-84
2022/01/10 03:26:24;;;;;;;56.13;31.00;;;;;;;4.29;100.00;91483.34;5053802;28;20048;-84
2022/01/10 03:28:52;;;;;;;55.78;27.50;;;;;;;4.42;100.00;91490.03;5053685;28;20411;-84
2022/01/10 03:31:19;;;;;;;49.92;28.40;;;;;;;4.50;100.00;91486.44;5053498;28;20107;-84
2022/01/10 03:33:46;;;;;;;52.60;29.42;;;;;;;4.50;100.00;91478.81;5053743;28;20040;-84
2022/01/10 03:36:12;;;;;;;56.25;28.25;;;;;;;4.08;100.00;91467.56;5053506;28;20099;-83
2022/01/10 03:38:41;;;;;;;52.20;28.77;;;;;;;3.64;100.00;91467.63;5053485;28;20085;-83
2022/01/10 03:41:09;;;;;;;52.83;28.10;;;;;;;3.34;100.00;91456.38;5053410;28;20403;-83
2022/01/10 03:43:36;;;;;;;50.50;28.45;;;;;;;3.45;100.00;91479.50;5053532;28;20972;-84
2022/01/10 03:46:04;;;;;;;53.42;29.13;;;;;;;3.63;100.00;91478.78;5053228;28;20052;-84
2022/01/10 03:48:31;;;;;;;44.30;26.77;;;;;;;3.78;100.00;91488.59;5053407;28;20056;-84
2022/01/10 03:50:58;;;;;;;47.22;26.30;;;;;;;3.88;100.00;91493.16;5052616;28;20049;-84
2022/01/10 03:53:24;;;;;;;52.95;31.02;;;;;;;3.78;100.00;91495.41;5053272;28;20106;-84
2022/01/10 03:55:51;;;;;;;49.25;28.70;;;;;;;3.71;100.00;91492.97;5053613;28;20565;-84
2022/01/10 03:58:18;;;;;;;46.85;31.10;;;;;;;3.74;100.00;91495.06;5053127;28;20049;-84
2022/01/10 04:00:45;;;;;;;51.08;31.83;;;;;;;3.84;100.00;91507.31;5052970;28;20056;-83
2022/01/10 04:03:13;;;;;;;39.65;23.20;;;;;;;3.55;100.00;91504.41;5052964;28;20049;-83
2022/01/10 04:05:40;;;;;;;43.38;25.27;;;;;;;3.42;100.00;91507.88;5052923;28;20480;-84
2022/01/10 04:08:07;;;;;;;40.17;24.25;;;;;;;3.47;100.00;91501.16;5053122;28;20045;-84
2022/01/10 04:10:34;;;;;;;42.63;23.52;;;;;;;3.60;100.00;91507.09;5052822;28;20041;-83
2022/01/10 04:13:01;;;;;;;39.60;23.40;;;;;;;3.71;100.00;91498.81;5052803;28;20056;-84
2022/01/10 04:15:28;;;;;;;38.70;23.63;;;;;;;3.95;100.00;91506.59;5053002;28;20067;-84
2022/01/10 04:17:56;;;;;;;36.50;21.25;;;;;;;3.85;100.00;91475.84;5052677;28;20056;-84
2022/01/10 04:20:25;;;;;;;35.40;19.33;;;;;;;4.17;100.00;91505.41;5052657;28;20136;-84
2022/01/10 04:22:52;;;;;;;39.42;24.45;;;;;;;3.99;100.00;91515.34;5052722;28;20041;-83
2022/01/10 04:25:19;;;;;;;47.58;28.42;;;;;;;3.76;100.00;91520.25;5052570;28;20049;-83
2022/01/10 04:27:46;;;;;;;37.80;22.67;;;;;;;3.80;100.00;91522.16;5052404;28;20393;-83
2022/01/10 04:30:13;;;;;;;38.13;23.70;;;;;;;3.92;100.00;91537.50;5052618;28;20041;-84
2022/01/10 04:32:42;;;;;;;35.70;20.10;;;;;;;3.84;100.00;91522.53;5052382;28;20053;-84
2022/01/10 04:35:09;;;;;;;33.97;21.15;;;;;;;3.43;100.00;91517.78;5052815;28;20053;-83
2022/01/10 04:37:38;;;;;;;35.10;22.10;;;;;;;3.42;100.00;91526.41;5052334;28;20052;-83
2022/01/10 04:40:06;;;;;;;44.72;25.50;;;;;;;3.48;100.00;91528.09;5052272;28;20052;-83
2022/01/10 04:42:34;;;;;;;38.85;23.30;;;;;;;3.57;100.00;91531.16;5052257;28;20052;-84
2022/01/10 04:45:01;;;;;;;36.88;22.27;;;;;;;3.57;100.00;91530.38;5052362;28;20049;-84
2022/01/10 04:47:28;;;;;;;30.38;18.00;;;;;;;3.59;100.00;91536.81;5052150;28;20045;-84
2022/01/10 04:50:22;;;;;;;31.15;18.88;;;;;;;3.32;100.00;91515.94;5052252;28;20049;-84
2022/01/10 04:52:52;;;;;;;40.72;24.95;;;;;;;3.51;100.00;91531.22;5052027;28;20055;-84
2022/01/10 04:55:20;;;;;;;36.30;21.00;;;;;;;3.44;100.00;91547.28;5052207;28;20186;-84
2022/01/10 04:57:47;;;;;;;38.63;23.33;;;;;;;3.40;100.00;91540.28;5051888;28;20057;-84
2022/01/10 05:00:15;;;;;;;34.63;21.92;;;;;;;3.31;100.00;91539.75;5052013;28;20111;-84
2022/01/10 05:02:44;;;;;;;38.20;23.98;;;;;;;3.26;100.00;91542.13;5051907;28;20491;-84
2022/01/10 05:05:11;;;;;;;45.58;26.75;;;;;;;3.36;100.00;91532.31;5051442;28;20483;-83
2022/01/10 05:07:38;;;;;;;46.97;27.38;;;;;;;3.48;100.00;91540.78;5051952;28;20049;-84
2022/01/10 05:10:06;;;;;;;48.58;27.13;;;;;;;3.54;100.00;91541.75;5051691;28;20041;-84
2022/01/10 05:12:33;;;;;;;51.10;27.42;;;;;;;3.40;100.00;91542.81;5051715;28;20483;-84
2022/01/10 05:15:00;;;;;;;51.35;28.98;;;;;;;3.32;100.00;91542.09;5051710;28;20053;-84
2022/01/10 05:17:27;;;;;;;44.25;25.88;;;;;;;3.44;100.00;91541.44;5051938;28;20049;-84
2022/01/10 05:19:54;;;;;;;62.75;38.63;;;;;;;3.60;100.00;91550.28;5052065;28;20679;-84
2022/01/10 05:22:21;;;;;;;56.53;29.73;;;;;;;3.69;100.00;91553.31;5051476;28;20488;-84
2022/01/10 05:24:47;;;;;;;61.97;32.45;;;;;;;3.73;100.00;91542.56;5051447;28;20546;-84
2022/01/10 05:27:15;;;;;;;102.20;51.53;;;;;;;3.82;100.00;91544.81;5051640;28;20045;-84
2022/01/10 05:29:42;;;;;;;67.03;35.45;;;;;;;4.00;100.00;91552.47;5051769;28;20045;-84
2022/01/10 05:32:09;;;;;;;61.67;35.55;;;;;;;4.12;100.00;91544.16;5051266;28;20052;-84
2022/01/10 05:34:36;;;;;;;49.58;28.13;;;;;;;4.24;100.00;91549.28;5051240;28;20458;-84
2022/01/10 05:37:03;;;;;;;53.88;30.25;;;;;;;4.35;100.00;91545.28;5051471;28;20041;-84
2022/01/10 05:39:30;;;;;;;51.72;31.58;;;;;;;4.36;100.00;91549.38;5051147;28;20470;-84
2022/01/10 05:41:56;;;;;;;44.88;27.98;;;;;;;4.36;100.00;91552.69;5051149;28;20049;-84
2022/01/10 05:44:25;;;;;;;31.13;20.13;;;;;;;4.28;100.00;91551.22;5051103;28;20537;-84
2022/01/10 05:46:52;;;;;;;22.75;16.48;;;;;;;4.24;100.00;91556.91;5051081;28;20389;-84
2022/01/10 05:49:25;;;;;;;22.05;15.90;;;;;;;4.25;100.00;91546.56;5051243;28;20045;-84
2022/01/10 05:51:52;;;;;;;15.00;11.32;;;;;;;3.81;100.00;91566.91;5050973;28;20044;-83
2022/01/10 05:54:18;;;;;;;13.45;11.38;;;;;;;3.51;100.00;91546.47;5051422;28;20055;-83
2022/01/10 05:56:45;;;;;;;18.25;13.13;;;;;;;3.49;100.00;91549.19;5051103;28;20420;-84
2022/01/10 05:59:12;;;;;;;15.23;11.75;;;;;;;3.52;100.00;91573.41;5050723;28;20503;-83
2022/01/10 06:01:45;;;;;;;16.75;13.30;;;;;;;3.41;100.00;91554.50;5050770;28;20071;-84
2022/01/10 06:04:12;;;;;;;15.45;12.48;;;;;;;3.63;100.00;91571.94;5051067;28;20049;-83
2022/01/10 06:06:39;;;;;;;18.08;13.43;;;;;;;3.76;100.00;91576.91;5050671;28;20504;-83
2022/01/10 06:09:05;;;;;;;20.02;14.65;;;;;;;3.93;100.00;91586.56;5050846;28;20044;-83
2022/01/10 06:11:34;;;;;;;21.63;15.23;;;;;;;4.06;100.00;91578.78;5050852;28;20103;-83
2022/01/10 06:14:01;;;;;;;44.65;23.80;;;;;;;3.97;100.00;91569.88;5050185;28;20041;-84
2022/01/10 06:16:28;;;;;;;37.45;25.38;;;;;;;3.88;100.00;91565.09;5050748;28;20479;-83
2022/01/10 06:18:57;;;;;;;30.58;21.15;;;;;;;3.97;100.00;91578.28;5050578;28;20068;-84
2022/01/10 06:21:23;;;;;;;33.15;20.45;;;;;;;4.00;100.00;91572.00;5050639;28;20049;-84
2022/01/10 06:23:50;;;;;;;37.67;21.17;;;;;;;4.18;100.00;91591.59;5050670;28;20044;-84
2022/01/10 06:26:17;;;;;;;34.35;19.80;;;;;;;4.26;100.00;91585.47;5050560;28;20049;-84
2022/01/10 06:28:44;;;;;;;32.28;21.23;;;;;;;4.28;100.00;91575.84;5050655;28;20045;-84
2022/01/10 06:31:11;;;;;;;36.63;23.15;;;;;;;4.48;100.00;91593.44;5050759;28;20045;-84
2022/01/10 06:33:37;;;;;;;44.78;26.80;;;;;;;4.54;100.00;91587.50;5050456;28;20041;-84
2022/01/10 06:36:08;;;;;;;30.33;19.02;;;;;;;4.48;100.00;91579.94;5050693;28;20549;-84
2022/01/10 06:38:35;;;;;;;29.65;19.27;;;;;;;4.49;100.00;91578.97;5050648;28;20056;-84
2022/01/10 06:41:02;;;;;;;31.35;20.02;;;;;;;4.54;100.00;91579.09;5050426;28;20056;-84
2022/01/10 06:43:29;;;;;;;28.52;20.15;;;;;;;4.58;100.00;91584.53;5050455;28;20052;-84
2022/01/10 06:45:56;;;;;;;31.35;20.52;;;;;;;4.60;100.00;91580.00;5050383;28;20499;-84
2022/01/10 06:48:22;;;;;;;31.40;21.25;;;;;;;4.70;100.00;91582.03;5050615;28;20124;-84
2022/01/10 06:50:49;;;;;;;28.60;19.60;;;;;;;4.67;100.00;91585.78;5051110;28;20053;-84
2022/01/10 06:53:18;;;;;;;35.42;20.08;;;;;;;4.53;100.00;91587.69;5050563;28;20530;-84
2022/01/10 06:55:45;;;;;;;27.02;18.50;;;;;;;4.59;100.00;91591.16;5050332;28;20052;-84
2022/01/10 06:58:13;;;;;;;29.98;18.50;;;;;;;4.61;100.00;91606.97;5050222;28;20079;-84
2022/01/10 07:00:40;;;;;;;18.50;13.45;;;;;;;4.54;100.00;91602.00;5048791;28;20480;-84
2022/01/10 07:03:07;;;;;;;17.08;13.23;;;;;;;4.47;100.00;91604.59;5050440;28;20057;-84
2022/01/10 07:05:34;;;;;;;16.70;12.52;;;;;;;4.52;100.00;91604.75;5050061;28;20057;-84
2022/01/10 07:08:01;;;;;;;20.15;12.27;;;;;;;4.49;100.00;91589.91;5050077;28;20060;-84
2022/01/10 07:10:29;;;;;;;18.08;11.40;;;;;;;4.61;100.00;91601.91;5050187;28;20052;-84
2022/01/10 07:12:56;;;;;;;14.70;10.48;;;;;;;4.48;100.00;91602.81;5050443;28;20045;-84
2022/01/10 07:15:25;;;;;;;12.25;9.45;;;;;;;4.37;100.00;91606.84;5050261;28;20480;-84
2022/01/10 07:17:52;;;;;;;13.75;9.55;;;;;;;4.52;100.00;91617.47;5050206;28;20404;-85
2022/01/10 07:20:20;;;;;;;26.40;16.58;;;;;;;4.44;100.00;91604.25;5050100;28;20411;-85
2022/01/10 07:22:47;;;;;;;20.52;12.48;;;;;;;4.26;100.00;91618.50;5050088;28;20044;-84
2022/01/10 07:25:15;;;;;;;15.38;9.48;;;;;;;4.10;100.00;91625.69;5051491;28;20049;-84
2022/01/10 07:27:43;;;;;;;13.75;8.80;;;;;;;4.04;100.00;91628.25;5054234;28;20049;-84
2022/01/10 07:30:11;;;;;;;15.50;9.52;;;;;;;4.00;100.00;91627.91;5053787;28;20055;-86
2022/01/10 07:32:37;;;;;;;12.85;9.68;;;;;;;4.01;100.00;91629.47;5053585;28;20041;-84
2022/01/10 07:35:05;;;;;;;16.70;10.88;;;;;;;4.18;100.00;91626.38;5053477;28;20049;-84
2022/01/10 07:37:32;;;;;;;15.80;9.52;;;;;;;4.17;100.00;91638.31;5053366;28;20411;-85
2022/01/10 07:39:59;;;;;;;11.00;7.50;;;;;;;4.13;100.00;91639.72;5053721;28;20140;-85
2022/01/10 07:42:25;;;;;;;12.85;8.80;;;;;;;4.17;100.00;91635.75;5053560;28;20052;-84
2022/01/10 07:44:54;;;;;;;12.10;7.80;;;;;;;4.17;100.00;91627.38;5053511;28;20041;-84
2022/01/10 07:47:21;;;;;;;11.00;7.18;;;;;;;4.12;100.00;91626.22;5053243;28;20061;-84
2022/01/10 07:49:48;;;;;;;14.73;10.43;;;;;;;4.38;100.00;91644.00;5053341;28;20049;-84
2022/01/10 07:52:15;;;;;;;10.93;7.78;;;;;;;4.43;100.00;91641.59;5053177;28;20475;-84
2022/01/10 07:54:44;;;;;;;10.23;6.80;;;;;;;4.49;100.00;91638.22;5053220;28;20427;-84
2022/01/10 07:57:11;;;;;;;14.32;7.65;;;;;;;4.47;100.00;91629.22;5053244;28;20123;-84
2022/01/10 07:59:38;;;;;;;13.85;8.80;;;;;;;4.66;100.00;91630.81;5053104;28;20110;-84
2022/01/10 08:02:06;;;;;;;15.85;9.57;;;;;;;4.72;100.00;91628.41;5052438;28;20041;-84
2022/01/10 08:04:33;;;;;;;8.95;6.90;;;;;;;4.40;100.00;91621.69;5049873;28;20045;-84
2022/01/10 08:06:59;;;;;;;13.43;7.43;;;;;;;4.57;100.00;91636.41;5052678;28;20442;-84
2022/01/10 08:09:26;;;;;;;15.88;10.77;;;;;;;4.38;100.00;91636.38;5052402;28;20048;-84
2022/01/10 08:11:59;;;;;;;13.60;8.82;;;;;;;4.35;100.00;91622.31;5049624;28;20499;-83
2022/01/10 08:14:26;;;;;;;11.80;9.02;;;;;;;4.32;100.00;91643.06;5052344;28;20037;-84
2022/01/10 08:16:52;;;;;;;11.30;8.73;;;;;;;4.33;100.00;91634.47;5052269;28;20051;-83
2022/01/10 08:19:21;;;;;;;13.50;8.32;;;;;;;4.26;100.00;91646.47;5052715;28;20426;-84
2022/01/10 08:21:47;;;;;;;14.73;9.93;;;;;;;4.11;100.00;91644.22;5052238;28;20541;-84
2022/01/10 08:24:14;;;;;;;14.25;9.05;;;;;;;4.23;100.00;91642.56;5051700;28;20091;-84
2022/01/10 08:26:41;;;;;;;15.10;10.15;;;;;;;4.13;100.00;91642.28;5051938;28;20064;-83
2022/01/10 08:29:09;;;;;;;14.07;9.55;;;;;;;3.81;100.00;91638.03;5052002;28;20091;-83
2022/01/10 08:31:36;;;;;;;13.05;9.13;;;;;;;3.73;100.00;91636.53;5051551;28;20404;-83
2022/01/10 08:34:04;;;;;;;15.30;11.00;;;;;;;3.93;100.00;91637.34;5051245;28;20378;-83
2022/01/10 08:36:32;;;;;;;14.35;11.40;;;;;;;3.95;100.00;91653.16;5051461;28;20142;-83
2022/01/10 08:38:59;;;;;;;16.77;12.32;;;;;;;4.12;100.00;91656.72;5049426;28;20057;-85
2022/01/10 08:41:26;;;;;;;19.73;13.50;;;;;;;4.37;100.00;91655.16;5051683;28;20148;-84
2022/01/10 08:43:53;;;;;;;17.58;12.63;;;;;;;4.34;100.00;91647.94;5052170;28;20064;-85
2022/01/10 08:46:19;;;;;;;14.88;10.50;;;;;;;4.59;100.00;91654.75;5052176;28;20118;-84
2022/01/10 08:48:46;;;;;;;15.02;10.88;;;;;;;4.66;100.00;91650.38;5051540;28;20064;-85
2022/01/10 08:51:13;;;;;;;20.40;11.90;;;;;;;4.86;100.00;91654.47;5051290;28;20045;-84
2022/01/10 08:53:41;;;;;;;39.17;15.73;;;;;;;4.95;100.00;91651.41;5051484;28;20493;-85
2022/01/10 08:56:08;;;;;;;26.13;11.35;;;;;;;4.96;100.00;91662.38;5051465;28;20041;-84
2022/01/10 08:58:35;;;;;;;22.10;12.20;;;;;;;5.06;100.00;91654.25;5051127;28;20045;-85
2022/01/10 09:01:04;;;;;;;29.00;15.05;;;;;;;5.16;100.00;91661.34;5051157;28;20037;-85
2022/01/10 09:03:32;;;;;;;20.25;13.70;;;;;;;5.29;100.00;91650.25;5051246;28;20554;-84
2022/01/10 09:05:59;;;;;;;28.52;13.88;;;;;;;5.41;100.00;91661.25;5051859;28;20562;-84
2022/01/10 09:08:27;;;;;;;15.73;10.70;;;;;;;5.10;100.00;91641.84;5051747;28;20057;-81
2022/01/10 09:10:56;;;;;;;11.98;7.90;;;;;;;4.89;100.00;91654.03;5047515;28;20052;-82
2022/01/10 09:13:23;;;;;;;12.65;8.38;;;;;;;4.66;100.00;91650.38;5051584;28;20053;-82
2022/01/10 09:15:50;;;;;;;19.50;10.23;;;;;;;4.72;100.00;91664.78;5051736;28;20056;-82
2022/01/10 09:18:18;;;;;;;15.50;9.80;;;;;;;4.45;100.00;91652.34;5051231;28;20053;-82
2022/01/10 09:20:58;;;;;;;;;;;;;;;;;;;;;
2022/01/10 09:23:26;;;;;;;18.08;11.85;;;;;;;4.35;100.00;91654.59;5051136;28;20052;-83
2022/01/10 09:25:53;;;;;;;19.50;10.55;;;;;;;4.64;100.00;91662.53;5051823;28;20044;-83
2022/01/10 09:28:21;;;;;;;16.52;11.68;;;;;;;4.77;100.00;91647.09;5051258;28;20045;-83
2022/01/10 09:30:49;;;;;;;17.23;11.18;;;;;;;4.54;100.00;91652.84;5051482;28;20049;-83
2022/01/10 09:33:16;;;;;;;15.68;9.15;;;;;;;4.40;100.00;91655.50;5051408;28;20091;-83
2022/01/10 09:35:43;;;;;;;13.25;8.95;;;;;;;4.12;100.00;91650.88;5051387;28;20053;-83
2022/01/10 09:38:11;;;;;;;17.20;10.40;;;;;;;4.39;100.00;91655.72;5051070;28;20060;-83
2022/01/10 09:40:38;;;;;;;11.00;7.63;;;;;;;4.44;100.00;91653.31;5051329;28;20110;-83
2022/01/10 09:43:04;;;;;;;15.23;10.02;;;;;;;4.71;100.00;91659.91;5051288;28;20049;-84
2022/01/10 09:45:34;;;;;;;10.75;7.25;;;;;;;4.84;100.00;91647.03;5051429;28;20476;-84
2022/01/10 09:48:01;;;;;;;19.35;13.52;;;;;;;4.88;100.00;91660.13;5050368;28;20052;-84
2022/01/10 09:50:28;;;;;;;13.23;9.07;;;;;;;4.94;100.00;91646.53;5051003;28;20053;-84
2022/01/10 09:52:55;;;;;;;14.15;10.10;;;;;;;5.24;100.00;91650.91;5051031;28;20045;-84
2022/01/10 09:55:22;;;;;;;23.63;16.83;;;;;;;5.20;100.00;91654.84;5050962;28;20048;-83
2022/01/10 09:57:49;;;;;;;23.05;14.43;;;;;;;5.47;100.00;91662.91;5050960;28;20048;-84
2022/01/10 10:00:17;;;;;;;24.65;15.60;;;;;;;5.68;100.00;91660.09;5051001;28;20060;-84
2022/01/10 10:02:49;;;;;;;21.13;13.10;;;;;;;5.88;100.00;91655.50;5050886;28;20127;-84
2022/01/10 10:05:16;;;;;;;14.70;9.02;;;;;;;5.98;100.00;91669.47;5050568;28;20098;-84
2022/01/10 10:07:44;;;;;;;19.15;10.48;;;;;;;6.17;100.00;91666.88;5051103;28;20403;-84
2022/01/10 10:10:13;;;;;;;19.05;10.98;;;;;;;6.35;100.00;91666.75;5050970;28;20052;-84
2022/01/10 10:12:41;;;;;;;55.03;36.17;;;;;;;6.48;100.00;91663.22;5050710;28;20053;-84
2022/01/10 10:15:09;;;;;;;26.98;17.02;;;;;;;6.47;100.00;91674.41;5050852;28;20045;-84
2022/01/10 10:17:38;;;;;;;56.55;24.05;;;;;;;6.02;100.00;91662.97;5050732;28;20053;-84
2022/01/10 10:20:09;;;;;;;24.55;13.65;;;;;;;6.19;100.00;91655.44;5050157;28;20114;-85
2022/01/10 10:22:36;;;;;;;12.45;7.90;;;;;;;5.52;100.00;91610.56;5050823;28;20053;-85
2022/01/10 10:25:06;;;;;;;19.02;10.68;;;;;;;6.06;100.00;91658.97;5050662;28;20053;-85
2022/01/10 10:27:36;;;;;;;18.48;9.85;;;;;;;6.06;100.00;91648.03;5050560;28;20487;-85
2022/01/10 10:30:05;;;;;;;28.65;12.35;;;;;;;6.23;100.00;91645.56;5050549;28;20048;-84
2022/01/10 10:32:32;;;;;;;17.17;7.97;;;;;;;6.13;100.00;91625.75;5050444;28;20056;-84
2022/01/10 10:34:59;;;;;;;8.60;5.47;;;;;;;6.13;100.00;91644.38;5050606;28;20049;-84
2022/01/10 10:37:29;;;;;;;10.18;6.55;;;;;;;6.18;100.00;91625.84;5050735;28;21014;-84
2022/01/10 10:39:58;;;;;;;13.80;8.75;;;;;;;6.45;100.00;91643.25;5050527;28;20053;-85
2022/01/10 10:42:28;;;;;;;14.32;9.27;;;;;;;6.54;100.00;91653.91;5050190;28;20045;-84
2022/01/10 10:44:56;;;;;;;8.23;4.55;;;;;;;6.34;100.00;91654.25;5050377;28;20094;-84
2022/01/10 10:47:27;;;;;;;8.68;4.10;;;;;;;5.82;100.00;91650.50;5050390;28;20135;-84
2022/01/10 10:49:58;;;;;;;10.85;5.80;;;;;;;5.09;100.00;91635.97;5050546;28;20111;-84
2022/01/10 10:52:33;;;;;;;12.10;5.85;;;;;;;5.33;100.00;91608.09;5050492;28;20131;-84
2022/01/10 10:55:06;;;;;;;54.90;24.73;;;;;;;4.99;100.00;91648.47;5050371;28;20048;-84
2022/01/10 10:57:33;;;;;;;14.32;7.75;;;;;;;4.85;100.00;91643.50;5049947;28;20551;-84
2022/01/10 11:00:01;;;;;;;15.52;9.95;;;;;;;4.86;100.00;91613.78;5053122;28;20053;-84
2022/01/10 11:02:29;;;;;;;10.88;6.78;;;;;;;5.42;100.00;91639.09;5054652;28;20045;-84
2022/01/10 11:04:56;;;;;;;11.18;6.53;;;;;;;5.64;100.00;91638.63;5053978;28;20041;-84
2022/01/10 11:07:24;;;;;;;14.82;8.23;;;;;;;5.86;100.00;91644.75;5053885;28;20065;-84
2022/01/10 11:09:53;;;;;;;14.68;7.55;;;;;;;6.13;100.00;91648.69;5053877;28;20438;-84
2022/01/10 11:12:23;;;;;;;17.15;9.05;;;;;;;6.29;100.00;91657.44;5054162;28;20049;-84
2022/01/10 11:14:52;;;;;;;18.00;10.18;;;;;;;6.35;100.00;91651.44;5053849;28;20053;-85
2022/01/10 11:17:20;;;;;;;39.75;18.73;;;;;;;6.54;100.00;91643.69;5053875;28;20053;-85
2022/01/10 11:20:09;;;;;;;27.67;12.73;;;;;;;6.30;100.00;91643.72;5053475;28;20095;-85
2022/01/10 11:22:43;;;;;;;12.25;6.30;;;;;;;5.71;100.00;91659.66;5053782;28;20048;-84
2022/01/10 11:25:28;;;;;;;15.57;7.97;;;;;;;5.88;100.00;91658.03;5053693;28;20091;-84